sensor_id;sensor_type;location;lat;lon;timestamp;P1;durP1;ratioP1;P2;durP2;ratioP2
64615;SDS011;51027;42.162;24.754;2022-12-20T00:01:55;20.55;;;8.32;;
64615;SDS011;51027;42.162;24.754;2022-12-20T00:04:20;18.67;;;7.55;;
64615;SDS011;51027;42.162;24.754;2022-12-20T00:06:46;18.45;;;7.65;;
64615;SDS011;51027;42.162;24.754;2022-12-20T00:09:12;20.15;;;7.35;;
64615;SDS011;51027;42.162;24.754;2022-12-20T00:11:41;21.15;;;7.40;;
64615;SDS011;51027;42.162;24.754;2022-12-20T00:14:10;20.27;;;7.50;;
64615;SDS011;51027;42.162;24.754;2022-12-20T00:16:36;20.73;;;7.85;;
64615;SDS011;51027;42.162;24.754;2022-12-20T00:19:03;20.65;;;8.18;;
64615;SDS011;51027;42.162;24.754;2022-12-20T00:21:30;20.73;;;7.70;;
64615;SDS011;51027;42.162;24.754;2022-12-20T00:24:07;21.27;;;8.18;;
64615;SDS011;51027;42.162;24.754;2022-12-20T00:26:44;23.67;;;7.93;;
64615;SDS011;51027;42.162;24.754;2022-12-20T00:29:56;23.40;;;7.72;;
64615;SDS011;51027;42.162;24.754;2022-12-20T00:32:11;22.42;;;7.97;;
64615;SDS011;51027;42.162;24.754;2022-12-20T00:34:37;23.95;;;9.18;;
64615;SDS011;51027;42.162;24.754;2022-12-20T00:37:03;23.05;;;8.40;;
64615;SDS011;51027;42.162;24.754;2022-12-20T00:39:29;21.90;;;8.80;;
64615;SDS011;51027;42.162;24.754;2022-12-20T00:42:06;20.75;;;7.85;;
64615;SDS011;51027;42.162;24.754;2022-12-20T00:44:32;19.30;;;8.00;;
64615;SDS011;51027;42.162;24.754;2022-12-20T00:46:58;18.02;;;7.28;;
64615;SDS011;51027;42.162;24.754;2022-12-20T00:49:24;21.23;;;6.88;;
64615;SDS011;51027;42.162;24.754;2022-12-20T00:51:49;18.35;;;6.30;;
64615;SDS011;51027;42.162;24.754;2022-12-20T00:54:18;19.23;;;7.30;;
64615;SDS011;51027;42.162;24.754;2022-12-20T00:57:05;21.55;;;6.55;;
64615;SDS011;51027;42.162;24.754;2022-12-20T00:59:33;17.58;;;6.63;;
64615;SDS011;51027;42.162;24.754;2022-12-20T01:02:02;19.38;;;7.15;;
64615;SDS011;51027;42.162;24.754;2022-12-20T01:04:30;23.65;;;7.70;;
64615;SDS011;51027;42.162;24.754;2022-12-20T01:06:56;21.45;;;7.32;;
64615;SDS011;51027;42.162;24.754;2022-12-20T01:09:22;18.83;;;6.80;;
64615;SDS011;51027;42.162;24.754;2022-12-20T01:11:48;22.63;;;7.15;;
64615;SDS011;51027;42.162;24.754;2022-12-20T01:14:14;18.65;;;6.82;;
64615;SDS011;51027;42.162;24.754;2022-12-20T01:16:46;18.70;;;7.13;;
64615;SDS011;51027;42.162;24.754;2022-12-20T01:19:16;18.55;;;6.47;;
64615;SDS011;51027;42.162;24.754;2022-12-20T01:21:45;19.40;;;6.78;;
64615;SDS011;51027;42.162;24.754;2022-12-20T01:24:12;17.75;;;6.28;;
64615;SDS011;51027;42.162;24.754;2022-12-20T01:26:39;20.08;;;7.15;;
64615;SDS011;51027;42.162;24.754;2022-12-20T01:29:05;21.10;;;7.00;;
64615;SDS011;51027;42.162;24.754;2022-12-20T01:31:31;20.33;;;6.53;;
64615;SDS011;51027;42.162;24.754;2022-12-20T01:33:59;23.70;;;7.38;;
64615;SDS011;51027;42.162;24.754;2022-12-20T01:36:32;17.88;;;6.28;;
64615;SDS011;51027;42.162;24.754;2022-12-20T01:48:23;16.77;;;5.80;;
64615;SDS011;51027;42.162;24.754;2022-12-20T01:50:55;20.83;;;5.93;;
64615;SDS011;51027;42.162;24.754;2022-12-20T01:56:18;20.15;;;6.63;;
64615;SDS011;51027;42.162;24.754;2022-12-20T01:58:50;15.35;;;5.53;;
64615;SDS011;51027;42.162;24.754;2022-12-20T02:04:12;19.50;;;6.22;;
64615;SDS011;51027;42.162;24.754;2022-12-20T02:06:47;20.80;;;6.50;;
64615;SDS011;51027;42.162;24.754;2022-12-20T02:09:22;20.88;;;6.82;;
64615;SDS011;51027;42.162;24.754;2022-12-20T02:31:54;19.50;;;7.18;;
64615;SDS011;51027;42.162;24.754;2022-12-20T02:34:27;19.15;;;6.63;;
64615;SDS011;51027;42.162;24.754;2022-12-20T02:36:55;16.00;;;5.35;;
64615;SDS011;51027;42.162;24.754;2022-12-20T02:39:21;17.38;;;6.60;;
64615;SDS011;51027;42.162;24.754;2022-12-20T02:41:50;21.67;;;6.63;;
64615;SDS011;51027;42.162;24.754;2022-12-20T02:44:19;21.88;;;7.45;;
64615;SDS011;51027;42.162;24.754;2022-12-20T02:47:07;20.15;;;6.80;;
64615;SDS011;51027;42.162;24.754;2022-12-20T02:49:38;19.60;;;7.05;;
64615;SDS011;51027;42.162;24.754;2022-12-20T02:52:06;18.95;;;6.03;;
64615;SDS011;51027;42.162;24.754;2022-12-20T02:54:33;19.13;;;6.03;;
64615;SDS011;51027;42.162;24.754;2022-12-20T02:57:17;14.27;;;5.50;;
64615;SDS011;51027;42.162;24.754;2022-12-20T02:59:54;21.77;;;6.60;;
64615;SDS011;51027;42.162;24.754;2022-12-20T03:02:27;22.48;;;6.88;;
64615;SDS011;51027;42.162;24.754;2022-12-20T03:04:53;21.70;;;8.05;;
64615;SDS011;51027;42.162;24.754;2022-12-20T03:07:19;18.50;;;5.63;;
64615;SDS011;51027;42.162;24.754;2022-12-20T03:09:45;20.95;;;6.03;;
64615;SDS011;51027;42.162;24.754;2022-12-20T03:12:10;20.33;;;6.10;;
64615;SDS011;51027;42.162;24.754;2022-12-20T03:14:40;17.27;;;6.40;;
64615;SDS011;51027;42.162;24.754;2022-12-20T03:17:06;17.80;;;6.63;;
64615;SDS011;51027;42.162;24.754;2022-12-20T03:19:32;16.98;;;6.90;;
64615;SDS011;51027;42.162;24.754;2022-12-20T03:21:57;19.48;;;6.57;;
64615;SDS011;51027;42.162;24.754;2022-12-20T03:24:23;19.10;;;6.95;;
64615;SDS011;51027;42.162;24.754;2022-12-20T03:26:49;18.08;;;5.65;;
64615;SDS011;51027;42.162;24.754;2022-12-20T03:29:14;19.42;;;6.35;;
64615;SDS011;51027;42.162;24.754;2022-12-20T03:31:39;18.05;;;6.38;;
64615;SDS011;51027;42.162;24.754;2022-12-20T03:34:05;17.73;;;6.03;;
64615;SDS011;51027;42.162;24.754;2022-12-20T03:36:31;19.92;;;7.80;;
64615;SDS011;51027;42.162;24.754;2022-12-20T03:38:57;21.15;;;6.32;;
64615;SDS011;51027;42.162;24.754;2022-12-20T03:41:23;19.42;;;7.00;;
64615;SDS011;51027;42.162;24.754;2022-12-20T03:43:48;20.73;;;6.85;;
64615;SDS011;51027;42.162;24.754;2022-12-20T03:46:14;18.58;;;6.95;;
64615;SDS011;51027;42.162;24.754;2022-12-20T03:48:40;22.08;;;8.15;;
64615;SDS011;51027;42.162;24.754;2022-12-20T03:51:06;20.42;;;6.70;;
64615;SDS011;51027;42.162;24.754;2022-12-20T03:53:32;18.50;;;6.18;;
64615;SDS011;51027;42.162;24.754;2022-12-20T03:55:57;20.58;;;6.70;;
64615;SDS011;51027;42.162;24.754;2022-12-20T03:58:23;18.48;;;6.32;;
64615;SDS011;51027;42.162;24.754;2022-12-20T04:00:49;20.65;;;8.68;;
64615;SDS011;51027;42.162;24.754;2022-12-20T04:03:14;21.17;;;7.93;;
64615;SDS011;51027;42.162;24.754;2022-12-20T04:05:39;20.20;;;6.88;;
64615;SDS011;51027;42.162;24.754;2022-12-20T04:08:05;19.33;;;6.15;;
64615;SDS011;51027;42.162;24.754;2022-12-20T04:10:30;16.63;;;6.90;;
64615;SDS011;51027;42.162;24.754;2022-12-20T04:12:56;20.50;;;6.55;;
64615;SDS011;51027;42.162;24.754;2022-12-20T04:15:21;22.98;;;6.30;;
64615;SDS011;51027;42.162;24.754;2022-12-20T04:17:47;17.98;;;6.13;;
64615;SDS011;51027;42.162;24.754;2022-12-20T04:20:13;20.63;;;6.95;;
64615;SDS011;51027;42.162;24.754;2022-12-20T04:22:46;21.58;;;7.03;;
64615;SDS011;51027;42.162;24.754;2022-12-20T04:25:12;17.55;;;6.32;;
64615;SDS011;51027;42.162;24.754;2022-12-20T04:27:37;19.60;;;6.65;;
64615;SDS011;51027;42.162;24.754;2022-12-20T04:30:03;19.10;;;5.53;;
64615;SDS011;51027;42.162;24.754;2022-12-20T04:32:29;18.83;;;6.80;;
64615;SDS011;51027;42.162;24.754;2022-12-20T04:34:54;21.23;;;6.25;;
64615;SDS011;51027;42.162;24.754;2022-12-20T04:37:20;19.15;;;6.32;;
64615;SDS011;51027;42.162;24.754;2022-12-20T04:39:45;18.15;;;6.72;;
64615;SDS011;51027;42.162;24.754;2022-12-20T04:42:10;23.15;;;7.30;;
64615;SDS011;51027;42.162;24.754;2022-12-20T04:44:36;20.05;;;6.38;;
64615;SDS011;51027;42.162;24.754;2022-12-20T04:47:01;16.52;;;6.13;;
64615;SDS011;51027;42.162;24.754;2022-12-20T04:49:27;18.55;;;6.50;;
64615;SDS011;51027;42.162;24.754;2022-12-20T04:51:52;19.67;;;6.80;;
64615;SDS011;51027;42.162;24.754;2022-12-20T04:54:18;15.60;;;6.53;;
64615;SDS011;51027;42.162;24.754;2022-12-20T04:56:43;19.92;;;7.03;;
64615;SDS011;51027;42.162;24.754;2022-12-20T04:59:08;18.70;;;6.22;;
64615;SDS011;51027;42.162;24.754;2022-12-20T05:01:35;22.50;;;8.30;;
64615;SDS011;51027;42.162;24.754;2022-12-20T05:04:01;22.23;;;7.75;;
64615;SDS011;51027;42.162;24.754;2022-12-20T05:06:26;27.73;;;8.15;;
64615;SDS011;51027;42.162;24.754;2022-12-20T05:08:52;24.48;;;9.88;;
64615;SDS011;51027;42.162;24.754;2022-12-20T05:11:19;25.27;;;8.35;;
64615;SDS011;51027;42.162;24.754;2022-12-20T05:13:44;24.55;;;9.07;;
64615;SDS011;51027;42.162;24.754;2022-12-20T05:16:10;24.23;;;9.50;;
64615;SDS011;51027;42.162;24.754;2022-12-20T05:18:35;24.42;;;8.40;;
64615;SDS011;51027;42.162;24.754;2022-12-20T05:21:01;27.42;;;10.75;;
64615;SDS011;51027;42.162;24.754;2022-12-20T05:23:45;27.20;;;8.63;;
64615;SDS011;51027;42.162;24.754;2022-12-20T05:26:31;21.52;;;8.15;;
64615;SDS011;51027;42.162;24.754;2022-12-20T05:28:59;26.17;;;8.50;;
64615;SDS011;51027;42.162;24.754;2022-12-20T05:31:24;26.60;;;8.77;;
64615;SDS011;51027;42.162;24.754;2022-12-20T05:33:50;23.60;;;8.35;;
64615;SDS011;51027;42.162;24.754;2022-12-20T05:36:15;25.08;;;8.30;;
64615;SDS011;51027;42.162;24.754;2022-12-20T05:38:41;22.90;;;8.02;;
64615;SDS011;51027;42.162;24.754;2022-12-20T05:41:06;28.00;;;9.13;;
64615;SDS011;51027;42.162;24.754;2022-12-20T05:43:32;24.25;;;10.25;;
64615;SDS011;51027;42.162;24.754;2022-12-20T05:45:58;22.55;;;8.93;;
64615;SDS011;51027;42.162;24.754;2022-12-20T05:48:23;25.80;;;9.85;;
64615;SDS011;51027;42.162;24.754;2022-12-20T05:50:48;26.23;;;10.00;;
64615;SDS011;51027;42.162;24.754;2022-12-20T05:53:14;25.55;;;9.05;;
64615;SDS011;51027;42.162;24.754;2022-12-20T05:55:45;23.65;;;9.65;;
64615;SDS011;51027;42.162;24.754;2022-12-20T05:58:16;29.92;;;13.32;;
64615;SDS011;51027;42.162;24.754;2022-12-20T06:00:45;26.45;;;11.52;;
64615;SDS011;51027;42.162;24.754;2022-12-20T06:03:11;24.35;;;10.45;;
64615;SDS011;51027;42.162;24.754;2022-12-20T06:05:39;30.77;;;12.55;;
64615;SDS011;51027;42.162;24.754;2022-12-20T06:08:05;27.67;;;9.82;;
64615;SDS011;51027;42.162;24.754;2022-12-20T06:10:32;30.52;;;10.82;;
64615;SDS011;51027;42.162;24.754;2022-12-20T06:12:59;28.60;;;13.38;;
64615;SDS011;51027;42.162;24.754;2022-12-20T06:15:25;27.13;;;11.13;;
64615;SDS011;51027;42.162;24.754;2022-12-20T06:17:51;30.45;;;9.82;;
64615;SDS011;51027;42.162;24.754;2022-12-20T06:20:16;24.88;;;8.68;;
64615;SDS011;51027;42.162;24.754;2022-12-20T06:22:42;27.33;;;13.38;;
64615;SDS011;51027;42.162;24.754;2022-12-20T06:25:07;22.63;;;9.63;;
64615;SDS011;51027;42.162;24.754;2022-12-20T06:27:34;21.25;;;9.40;;
64615;SDS011;51027;42.162;24.754;2022-12-20T06:30:00;33.67;;;13.40;;
64615;SDS011;51027;42.162;24.754;2022-12-20T06:32:27;31.02;;;12.80;;
64615;SDS011;51027;42.162;24.754;2022-12-20T06:34:52;32.75;;;13.15;;
64615;SDS011;51027;42.162;24.754;2022-12-20T06:37:17;28.10;;;12.68;;
64615;SDS011;51027;42.162;24.754;2022-12-20T06:39:43;29.08;;;13.38;;
64615;SDS011;51027;42.162;24.754;2022-12-20T06:42:08;34.92;;;14.82;;
64615;SDS011;51027;42.162;24.754;2022-12-20T06:44:34;32.42;;;13.25;;
64615;SDS011;51027;42.162;24.754;2022-12-20T06:46:59;25.75;;;12.27;;
64615;SDS011;51027;42.162;24.754;2022-12-20T06:49:25;25.63;;;12.25;;
64615;SDS011;51027;42.162;24.754;2022-12-20T06:51:50;30.50;;;12.82;;
64615;SDS011;51027;42.162;24.754;2022-12-20T06:54:16;31.92;;;13.60;;
64615;SDS011;51027;42.162;24.754;2022-12-20T06:56:42;32.05;;;13.98;;
64615;SDS011;51027;42.162;24.754;2022-12-20T06:59:07;28.30;;;12.25;;
64615;SDS011;51027;42.162;24.754;2022-12-20T07:01:32;32.95;;;15.02;;
64615;SDS011;51027;42.162;24.754;2022-12-20T07:03:58;28.50;;;14.75;;
64615;SDS011;51027;42.162;24.754;2022-12-20T07:06:23;34.53;;;15.18;;
64615;SDS011;51027;42.162;24.754;2022-12-20T07:08:49;32.42;;;12.63;;
64615;SDS011;51027;42.162;24.754;2022-12-20T07:11:14;33.25;;;13.73;;
64615;SDS011;51027;42.162;24.754;2022-12-20T07:13:39;26.50;;;11.02;;
64615;SDS011;51027;42.162;24.754;2022-12-20T07:16:05;29.17;;;10.93;;
64615;SDS011;51027;42.162;24.754;2022-12-20T07:18:30;27.55;;;10.63;;
64615;SDS011;51027;42.162;24.754;2022-12-20T07:21:00;26.80;;;10.52;;
64615;SDS011;51027;42.162;24.754;2022-12-20T07:23:26;26.08;;;9.95;;
64615;SDS011;51027;42.162;24.754;2022-12-20T07:25:53;26.45;;;9.77;;
64615;SDS011;51027;42.162;24.754;2022-12-20T07:28:19;23.00;;;10.20;;
64615;SDS011;51027;42.162;24.754;2022-12-20T07:30:45;29.58;;;9.75;;
64615;SDS011;51027;42.162;24.754;2022-12-20T07:33:10;25.38;;;10.15;;
64615;SDS011;51027;42.162;24.754;2022-12-20T07:35:35;27.27;;;10.98;;
64615;SDS011;51027;42.162;24.754;2022-12-20T07:38:01;25.88;;;11.38;;
64615;SDS011;51027;42.162;24.754;2022-12-20T07:40:26;28.23;;;11.15;;
64615;SDS011;51027;42.162;24.754;2022-12-20T07:42:51;27.50;;;10.88;;
64615;SDS011;51027;42.162;24.754;2022-12-20T07:45:17;25.38;;;10.30;;
64615;SDS011;51027;42.162;24.754;2022-12-20T07:47:42;26.00;;;11.43;;
64615;SDS011;51027;42.162;24.754;2022-12-20T07:50:08;25.77;;;11.40;;
64615;SDS011;51027;42.162;24.754;2022-12-20T07:52:34;30.08;;;13.27;;
64615;SDS011;51027;42.162;24.754;2022-12-20T07:55:02;30.48;;;15.77;;
64615;SDS011;51027;42.162;24.754;2022-12-20T07:57:31;31.60;;;13.02;;
64615;SDS011;51027;42.162;24.754;2022-12-20T08:00:02;30.08;;;14.00;;
64615;SDS011;51027;42.162;24.754;2022-12-20T08:02:34;26.50;;;13.13;;
64615;SDS011;51027;42.162;24.754;2022-12-20T08:05:02;26.63;;;12.80;;
64615;SDS011;51027;42.162;24.754;2022-12-20T08:07:31;24.35;;;11.45;;
64615;SDS011;51027;42.162;24.754;2022-12-20T08:09:57;23.08;;;10.18;;
64615;SDS011;51027;42.162;24.754;2022-12-20T08:12:23;26.33;;;11.43;;
64615;SDS011;51027;42.162;24.754;2022-12-20T08:14:52;22.50;;;9.68;;
64615;SDS011;51027;42.162;24.754;2022-12-20T08:17:20;23.92;;;10.13;;
64615;SDS011;51027;42.162;24.754;2022-12-20T08:19:47;26.42;;;9.25;;
64615;SDS011;51027;42.162;24.754;2022-12-20T08:22:16;25.50;;;11.02;;
64615;SDS011;51027;42.162;24.754;2022-12-20T08:24:42;27.73;;;11.00;;
64615;SDS011;51027;42.162;24.754;2022-12-20T08:27:07;24.45;;;9.68;;
64615;SDS011;51027;42.162;24.754;2022-12-20T08:29:33;24.90;;;10.35;;
64615;SDS011;51027;42.162;24.754;2022-12-20T08:31:58;27.65;;;11.57;;
64615;SDS011;51027;42.162;24.754;2022-12-20T08:34:24;29.23;;;11.38;;
64615;SDS011;51027;42.162;24.754;2022-12-20T08:36:49;25.65;;;12.02;;
64615;SDS011;51027;42.162;24.754;2022-12-20T08:39:14;24.52;;;10.57;;
64615;SDS011;51027;42.162;24.754;2022-12-20T08:41:40;17.23;;;7.45;;
64615;SDS011;51027;42.162;24.754;2022-12-20T08:44:05;29.95;;;11.60;;
64615;SDS011;51027;42.162;24.754;2022-12-20T08:46:31;24.33;;;10.93;;
64615;SDS011;51027;42.162;24.754;2022-12-20T08:48:56;25.48;;;10.85;;
64615;SDS011;51027;42.162;24.754;2022-12-20T08:51:22;24.77;;;12.32;;
64615;SDS011;51027;42.162;24.754;2022-12-20T08:53:47;20.52;;;7.85;;
64615;SDS011;51027;42.162;24.754;2022-12-20T08:56:16;22.25;;;9.82;;
64615;SDS011;51027;42.162;24.754;2022-12-20T08:58:42;20.30;;;7.40;;
64615;SDS011;51027;42.162;24.754;2022-12-20T09:01:10;20.75;;;8.38;;
64615;SDS011;51027;42.162;24.754;2022-12-20T09:03:37;25.80;;;9.10;;
64615;SDS011;51027;42.162;24.754;2022-12-20T09:06:04;21.85;;;8.55;;
64615;SDS011;51027;42.162;24.754;2022-12-20T09:08:34;22.08;;;9.30;;
64615;SDS011;51027;42.162;24.754;2022-12-20T09:11:10;21.88;;;8.63;;
64615;SDS011;51027;42.162;24.754;2022-12-20T09:13:42;20.55;;;8.82;;
64615;SDS011;51027;42.162;24.754;2022-12-20T09:16:11;21.27;;;9.25;;
64615;SDS011;51027;42.162;24.754;2022-12-20T09:18:37;23.25;;;9.15;;
64615;SDS011;51027;42.162;24.754;2022-12-20T09:21:04;21.95;;;10.05;;
64615;SDS011;51027;42.162;24.754;2022-12-20T09:23:31;21.73;;;8.40;;
64615;SDS011;51027;42.162;24.754;2022-12-20T09:26:01;21.25;;;9.07;;
64615;SDS011;51027;42.162;24.754;2022-12-20T09:28:28;21.48;;;9.60;;
64615;SDS011;51027;42.162;24.754;2022-12-20T09:30:57;31.38;;;10.00;;
64615;SDS011;51027;42.162;24.754;2022-12-20T09:35:49;32.38;;;10.05;;
64615;SDS011;51027;42.162;24.754;2022-12-20T09:38:15;21.13;;;10.15;;
64615;SDS011;51027;42.162;24.754;2022-12-20T09:40:43;27.08;;;8.85;;
64615;SDS011;51027;42.162;24.754;2022-12-20T09:43:13;22.25;;;9.43;;
64615;SDS011;51027;42.162;24.754;2022-12-20T09:45:40;22.00;;;9.52;;
64615;SDS011;51027;42.162;24.754;2022-12-20T09:48:16;26.00;;;9.65;;
64615;SDS011;51027;42.162;24.754;2022-12-20T09:50:48;25.08;;;9.15;;
64615;SDS011;51027;42.162;24.754;2022-12-20T09:53:43;25.38;;;10.48;;
64615;SDS011;51027;42.162;24.754;2022-12-20T10:01:35;23.67;;;8.75;;
64615;SDS011;51027;42.162;24.754;2022-12-20T10:04:02;24.00;;;8.55;;
64615;SDS011;51027;42.162;24.754;2022-12-20T10:06:47;24.52;;;8.45;;
64615;SDS011;51027;42.162;24.754;2022-12-20T10:23:21;21.42;;;9.23;;
64615;SDS011;51027;42.162;24.754;2022-12-20T10:25:51;20.10;;;7.95;;
64615;SDS011;51027;42.162;24.754;2022-12-20T10:28:28;19.50;;;8.07;;
64615;SDS011;51027;42.162;24.754;2022-12-20T10:31:02;20.85;;;8.50;;
64615;SDS011;51027;42.162;24.754;2022-12-20T10:33:31;22.95;;;9.65;;
64615;SDS011;51027;42.162;24.754;2022-12-20T10:39:02;22.65;;;8.98;;
64615;SDS011;51027;42.162;24.754;2022-12-20T10:41:31;21.17;;;8.05;;
64615;SDS011;51027;42.162;24.754;2022-12-20T10:47:03;21.70;;;9.82;;
64615;SDS011;51027;42.162;24.754;2022-12-20T10:49:49;22.35;;;7.80;;
64615;SDS011;51027;42.162;24.754;2022-12-20T10:52:14;18.67;;;7.25;;
64615;SDS011;51027;42.162;24.754;2022-12-20T10:54:42;20.95;;;7.97;;
64615;SDS011;51027;42.162;24.754;2022-12-20T10:57:23;19.48;;;8.40;;
64615;SDS011;51027;42.162;24.754;2022-12-20T10:59:52;21.13;;;8.65;;
64615;SDS011;51027;42.162;24.754;2022-12-20T11:08:00;20.35;;;7.80;;
64615;SDS011;51027;42.162;24.754;2022-12-20T11:10:45;19.73;;;6.95;;
64615;SDS011;51027;42.162;24.754;2022-12-20T11:13:21;22.27;;;8.43;;
64615;SDS011;51027;42.162;24.754;2022-12-20T11:15:50;18.00;;;7.07;;
64615;SDS011;51027;42.162;24.754;2022-12-20T11:22:07;18.23;;;7.32;;
64615;SDS011;51027;42.162;24.754;2022-12-20T11:27:19;18.85;;;7.43;;
64615;SDS011;51027;42.162;24.754;2022-12-20T11:51:07;19.95;;;8.30;;
64615;SDS011;51027;42.162;24.754;2022-12-20T11:53:41;24.13;;;7.72;;
64615;SDS011;51027;42.162;24.754;2022-12-20T11:56:21;20.42;;;7.60;;
64615;SDS011;51027;42.162;24.754;2022-12-20T11:58:54;20.85;;;8.90;;
64615;SDS011;51027;42.162;24.754;2022-12-20T12:01:26;20.90;;;7.80;;
64615;SDS011;51027;42.162;24.754;2022-12-20T12:04:03;21.92;;;8.18;;
64615;SDS011;51027;42.162;24.754;2022-12-20T12:06:43;21.98;;;8.20;;
64615;SDS011;51027;42.162;24.754;2022-12-20T12:17:35;19.40;;;8.13;;
64615;SDS011;51027;42.162;24.754;2022-12-20T12:22:48;20.90;;;7.82;;
64615;SDS011;51027;42.162;24.754;2022-12-20T12:25:17;20.48;;;7.72;;
64615;SDS011;51027;42.162;24.754;2022-12-20T12:27:43;22.08;;;8.35;;
64615;SDS011;51027;42.162;24.754;2022-12-20T12:30:13;19.40;;;8.13;;
64615;SDS011;51027;42.162;24.754;2022-12-20T12:32:53;20.33;;;8.82;;
64615;SDS011;51027;42.162;24.754;2022-12-20T12:46:12;19.80;;;7.75;;
64615;SDS011;51027;42.162;24.754;2022-12-20T12:53:53;20.33;;;8.77;;
64615;SDS011;51027;42.162;24.754;2022-12-20T13:04:08;23.90;;;9.77;;
64615;SDS011;51027;42.162;24.754;2022-12-20T13:09:19;23.50;;;9.50;;
64615;SDS011;51027;42.162;24.754;2022-12-20T13:11:55;23.88;;;9.75;;
64615;SDS011;51027;42.162;24.754;2022-12-20T13:21:56;22.33;;;9.82;;
64615;SDS011;51027;42.162;24.754;2022-12-20T13:24:35;22.85;;;9.55;;
64615;SDS011;51027;42.162;24.754;2022-12-20T13:27:47;21.70;;;9.48;;
64615;SDS011;51027;42.162;24.754;2022-12-20T13:40:39;22.08;;;9.18;;
64615;SDS011;51027;42.162;24.754;2022-12-20T13:43:19;23.00;;;9.55;;
64615;SDS011;51027;42.162;24.754;2022-12-20T13:48:46;24.38;;;10.00;;
64615;SDS011;51027;42.162;24.754;2022-12-20T13:51:17;23.58;;;9.55;;
64615;SDS011;51027;42.162;24.754;2022-12-20T13:53:53;21.05;;;9.43;;
64615;SDS011;51027;42.162;24.754;2022-12-20T13:56:31;24.17;;;9.93;;
64615;SDS011;51027;42.162;24.754;2022-12-20T13:59:05;24.60;;;10.93;;
64615;SDS011;51027;42.162;24.754;2022-12-20T14:01:38;23.90;;;9.82;;
64615;SDS011;51027;42.162;24.754;2022-12-20T14:04:12;26.90;;;10.05;;
64615;SDS011;51027;42.162;24.754;2022-12-20T14:06:38;25.83;;;8.55;;
64615;SDS011;51027;42.162;24.754;2022-12-20T14:09:04;23.50;;;9.55;;
64615;SDS011;51027;42.162;24.754;2022-12-20T14:12:00;24.98;;;10.25;;
64615;SDS011;51027;42.162;24.754;2022-12-20T14:14:35;24.90;;;10.50;;
64615;SDS011;51027;42.162;24.754;2022-12-20T14:22:37;24.08;;;9.68;;
64615;SDS011;51027;42.162;24.754;2022-12-20T14:25:31;24.77;;;9.77;;
64615;SDS011;51027;42.162;24.754;2022-12-20T14:28:15;26.00;;;9.25;;
64615;SDS011;51027;42.162;24.754;2022-12-20T14:30:49;24.92;;;9.90;;
64615;SDS011;51027;42.162;24.754;2022-12-20T14:33:18;21.55;;;8.90;;
64615;SDS011;51027;42.162;24.754;2022-12-20T14:35:47;23.58;;;9.18;;
64615;SDS011;51027;42.162;24.754;2022-12-20T14:38:19;21.50;;;8.85;;
64615;SDS011;51027;42.162;24.754;2022-12-20T14:40:47;22.70;;;8.65;;
64615;SDS011;51027;42.162;24.754;2022-12-20T14:43:13;20.23;;;8.18;;
64615;SDS011;51027;42.162;24.754;2022-12-20T14:46:04;23.40;;;9.23;;
64615;SDS011;51027;42.162;24.754;2022-12-20T14:51:05;24.25;;;10.07;;
64615;SDS011;51027;42.162;24.754;2022-12-20T14:53:30;24.58;;;10.35;;
64615;SDS011;51027;42.162;24.754;2022-12-20T14:55:56;28.05;;;12.95;;
64615;SDS011;51027;42.162;24.754;2022-12-20T15:03:52;32.38;;;14.75;;
64615;SDS011;51027;42.162;24.754;2022-12-20T15:09:05;35.30;;;17.63;;
64615;SDS011;51027;42.162;24.754;2022-12-20T15:11:31;37.00;;;17.27;;
64615;SDS011;51027;42.162;24.754;2022-12-20T15:13:59;40.95;;;19.23;;
64615;SDS011;51027;42.162;24.754;2022-12-20T15:16:26;38.25;;;18.27;;
64615;SDS011;51027;42.162;24.754;2022-12-20T15:18:57;37.17;;;18.55;;
64615;SDS011;51027;42.162;24.754;2022-12-20T15:21:29;41.22;;;18.63;;
64615;SDS011;51027;42.162;24.754;2022-12-20T15:23:58;37.13;;;18.85;;
64615;SDS011;51027;42.162;24.754;2022-12-20T15:26:26;39.97;;;18.15;;
64615;SDS011;51027;42.162;24.754;2022-12-20T15:28:52;40.13;;;18.83;;
64615;SDS011;51027;42.162;24.754;2022-12-20T15:31:19;38.85;;;19.52;;
64615;SDS011;51027;42.162;24.754;2022-12-20T15:33:46;45.33;;;20.00;;
64615;SDS011;51027;42.162;24.754;2022-12-20T15:36:15;41.03;;;20.30;;
64615;SDS011;51027;42.162;24.754;2022-12-20T15:38:42;46.75;;;21.65;;
64615;SDS011;51027;42.162;24.754;2022-12-20T15:41:10;41.78;;;20.55;;
64615;SDS011;51027;42.162;24.754;2022-12-20T15:43:41;42.03;;;20.45;;
64615;SDS011;51027;42.162;24.754;2022-12-20T15:46:06;44.65;;;20.52;;
64615;SDS011;51027;42.162;24.754;2022-12-20T15:48:32;43.60;;;18.55;;
64615;SDS011;51027;42.162;24.754;2022-12-20T15:50:57;41.85;;;17.73;;
64615;SDS011;51027;42.162;24.754;2022-12-20T15:53:26;37.38;;;16.95;;
64615;SDS011;51027;42.162;24.754;2022-12-20T15:55:55;46.45;;;19.52;;
64615;SDS011;51027;42.162;24.754;2022-12-20T15:58:24;40.97;;;20.95;;
64615;SDS011;51027;42.162;24.754;2022-12-20T16:03:22;47.88;;;20.52;;
64615;SDS011;51027;42.162;24.754;2022-12-20T16:05:50;38.13;;;19.90;;
64615;SDS011;51027;42.162;24.754;2022-12-20T16:08:16;42.28;;;20.77;;
64615;SDS011;51027;42.162;24.754;2022-12-20T16:10:45;39.28;;;19.40;;
64615;SDS011;51027;42.162;24.754;2022-12-20T16:13:12;45.78;;;21.60;;
64615;SDS011;51027;42.162;24.754;2022-12-20T16:15:39;40.00;;;20.75;;
64615;SDS011;51027;42.162;24.754;2022-12-20T16:18:05;50.58;;;21.45;;
64615;SDS011;51027;42.162;24.754;2022-12-20T16:20:32;43.70;;;22.90;;
64615;SDS011;51027;42.162;24.754;2022-12-20T16:22:57;37.78;;;19.42;;
64615;SDS011;51027;42.162;24.754;2022-12-20T16:25:24;34.97;;;17.67;;
64615;SDS011;51027;42.162;24.754;2022-12-20T16:27:52;34.92;;;16.95;;
64615;SDS011;51027;42.162;24.754;2022-12-20T16:30:18;41.58;;;19.65;;
64615;SDS011;51027;42.162;24.754;2022-12-20T16:32:43;51.58;;;22.38;;
64615;SDS011;51027;42.162;24.754;2022-12-20T16:35:15;48.60;;;23.27;;
64615;SDS011;51027;42.162;24.754;2022-12-20T16:37:46;58.78;;;26.70;;
64615;SDS011;51027;42.162;24.754;2022-12-20T16:40:12;63.20;;;30.70;;
64615;SDS011;51027;42.162;24.754;2022-12-20T16:42:39;63.75;;;29.42;;
64615;SDS011;51027;42.162;24.754;2022-12-20T16:45:05;57.35;;;28.55;;
64615;SDS011;51027;42.162;24.754;2022-12-20T16:47:35;53.92;;;29.60;;
64615;SDS011;51027;42.162;24.754;2022-12-20T16:50:00;47.67;;;25.35;;
64615;SDS011;51027;42.162;24.754;2022-12-20T16:52:26;43.03;;;24.58;;
64615;SDS011;51027;42.162;24.754;2022-12-20T16:54:51;46.15;;;23.77;;
64615;SDS011;51027;42.162;24.754;2022-12-20T16:57:18;38.63;;;21.30;;
64615;SDS011;51027;42.162;24.754;2022-12-20T16:59:43;39.83;;;20.92;;
64615;SDS011;51027;42.162;24.754;2022-12-20T17:02:21;38.22;;;20.40;;
64615;SDS011;51027;42.162;24.754;2022-12-20T17:04:47;36.75;;;19.38;;
64615;SDS011;51027;42.162;24.754;2022-12-20T17:07:12;40.20;;;19.65;;
64615;SDS011;51027;42.162;24.754;2022-12-20T17:09:38;37.15;;;19.55;;
64615;SDS011;51027;42.162;24.754;2022-12-20T17:12:07;37.15;;;19.58;;
64615;SDS011;51027;42.162;24.754;2022-12-20T17:14:38;41.20;;;21.40;;
64615;SDS011;51027;42.162;24.754;2022-12-20T17:17:03;43.15;;;21.00;;
64615;SDS011;51027;42.162;24.754;2022-12-20T17:19:29;46.55;;;21.65;;